createdAt,value
2022-10-07T00:01:10.728Z,2.50
2022-10-07T00:03:38.684Z,2.00
2022-10-07T00:06:06.433Z,3.00
2022-10-07T00:08:34.012Z,3.50
2022-10-07T00:11:01.656Z,1.00
2022-10-07T00:13:29.287Z,2.50
2022-10-07T00:15:57.524Z,2.00
2022-10-07T00:18:25.244Z,1.00
2022-10-07T00:20:52.953Z,1.50
2022-10-07T00:23:20.544Z,3.00
2022-10-07T00:25:48.381Z,2.00
2022-10-07T00:28:16.420Z,3.50
2022-10-07T00:30:44.020Z,2.50
2022-10-07T00:33:11.636Z,3.00
2022-10-07T00:35:39.517Z,3.00
2022-10-07T00:38:07.090Z,3.75
2022-10-07T00:40:35.252Z,3.00
2022-10-07T00:43:02.896Z,3.00
2022-10-07T00:45:31.197Z,3.00
2022-10-07T00:47:58.767Z,3.25
2022-10-07T00:50:26.734Z,4.00
2022-10-07T00:52:54.901Z,1.00
2022-10-07T00:55:22.491Z,3.75
2022-10-07T00:57:50.576Z,3.60
2022-10-07T01:00:18.431Z,1.80
2022-10-07T01:02:47.858Z,3.00
2022-10-07T01:05:16.233Z,1.80
2022-10-07T01:07:43.952Z,2.00
2022-10-07T01:10:12.188Z,3.00
2022-10-07T01:12:39.826Z,3.00
2022-10-07T01:15:08.365Z,2.00
2022-10-07T01:17:36.651Z,1.00
2022-10-07T01:20:04.647Z,1.00
2022-10-07T01:22:32.202Z,3.20
2022-10-07T01:24:59.729Z,4.00
2022-10-07T01:27:27.318Z,2.20
2022-10-07T01:29:56.224Z,2.50
2022-10-07T01:32:23.832Z,0.60
2022-10-07T01:34:51.556Z,1.00
2022-10-07T01:37:19.133Z,2.20
2022-10-07T01:39:46.678Z,1.00
2022-10-07T01:42:15.527Z,0.00
2022-10-07T01:44:43.950Z,4.00
2022-10-07T01:47:11.500Z,3.00
2022-10-07T01:49:39.089Z,3.80
2022-10-07T01:52:06.621Z,3.00
2022-10-07T01:54:34.646Z,3.00
2022-10-07T01:57:02.277Z,1.80
2022-10-07T01:59:30.127Z,2.60
2022-10-07T02:01:57.850Z,3.80
2022-10-07T02:04:25.816Z,3.00
2022-10-07T02:06:53.935Z,1.80
2022-10-07T02:09:21.614Z,3.00
2022-10-07T02:11:49.225Z,1.80
2022-10-07T02:14:16.805Z,3.20
2022-10-07T02:16:44.334Z,3.20
2022-10-07T02:19:12.878Z,1.40
2022-10-07T02:21:40.444Z,3.20
2022-10-07T02:24:07.995Z,1.40
2022-10-07T02:26:36.021Z,0.40
2022-10-07T02:29:03.595Z,1.00
2022-10-07T02:31:31.849Z,1.00
2022-10-07T02:33:59.548Z,1.00
2022-10-07T02:36:27.095Z,2.20
2022-10-07T02:38:54.653Z,1.00
2022-10-07T02:41:31.569Z,3.00
2022-10-07T02:43:59.226Z,3.00
2022-10-07T02:46:26.872Z,2.20
2022-10-07T02:48:57.043Z,3.40
2022-10-07T02:51:24.609Z,1.00
2022-10-07T02:53:52.179Z,2.20
2022-10-07T02:56:20.390Z,1.00
2022-10-07T02:58:47.997Z,0.80
2022-10-07T03:01:17.522Z,3.00
2022-10-07T03:03:45.971Z,3.00
2022-10-07T03:06:13.564Z,1.00
2022-10-07T03:08:41.937Z,1.00
2022-10-07T03:11:09.902Z,1.00
2022-10-07T03:13:37.492Z,1.00
2022-10-07T03:16:05.563Z,1.40
2022-10-07T03:18:33.251Z,3.00
2022-10-07T03:21:01.456Z,3.00
2022-10-07T03:23:29.310Z,4.00
2022-10-07T03:25:56.906Z,3.00
2022-10-07T03:28:24.490Z,4.00
2022-10-07T03:30:52.124Z,1.80
2022-10-07T03:33:20.311Z,2.60
2022-10-07T03:35:47.892Z,0.20
2022-10-07T03:38:15.431Z,1.00
2022-10-07T03:40:43.019Z,1.40
2022-10-07T03:43:10.592Z,2.20
2022-10-07T03:45:38.816Z,2.60
2022-10-07T03:48:06.464Z,3.00
2022-10-07T03:50:34.004Z,3.00
2022-10-07T03:53:01.979Z,3.00
2022-10-07T03:55:29.593Z,3.00
2022-10-07T03:57:59.751Z,1.00
2022-10-07T04:00:27.463Z,2.60
2022-10-07T04:02:55.079Z,3.00
2022-10-07T04:05:22.892Z,3.00
2022-10-07T04:07:50.449Z,3.00
2022-10-07T04:10:18.763Z,3.60
2022-10-07T04:12:48.156Z,1.00
2022-10-07T04:15:15.686Z,2.60
2022-10-07T04:17:43.400Z,3.00
2022-10-07T04:20:11.006Z,2.20
2022-10-07T04:22:39.695Z,3.00
2022-10-07T04:25:24.750Z,1.00
2022-10-07T04:27:52.556Z,0.80
2022-10-07T04:30:20.131Z,2.60
2022-10-07T04:32:48.314Z,1.00
2022-10-07T04:35:16.155Z,4.40
2022-10-07T04:37:44.030Z,3.20
2022-10-07T04:40:11.852Z,2.40
2022-10-07T04:42:57.285Z,3.00
2022-10-07T04:45:25.167Z,2.20
2022-10-07T04:47:52.746Z,1.00
2022-10-07T04:50:20.335Z,3.00
2022-10-07T04:52:47.951Z,1.00
2022-10-07T04:55:16.008Z,1.40
2022-10-07T04:57:44.105Z,1.00
2022-10-07T05:00:11.958Z,2.60
2022-10-07T05:02:40.107Z,3.60
2022-10-07T05:05:07.689Z,3.00
2022-10-07T05:07:35.635Z,1.00
2022-10-07T05:10:03.250Z,3.00
2022-10-07T05:12:30.813Z,3.00
2022-10-07T05:14:58.439Z,1.80
2022-10-07T05:17:26.029Z,3.00
2022-10-07T05:19:53.950Z,1.40
2022-10-07T05:22:21.752Z,1.00
2022-10-07T05:24:49.323Z,0.00
2022-10-07T05:27:16.900Z,1.80
2022-10-07T05:29:44.493Z,7.20
2022-10-07T05:32:12.527Z,4.00
2022-10-07T05:34:40.186Z,6.00
2022-10-07T05:37:07.855Z,3.00
2022-10-07T05:39:35.930Z,3.60
2022-10-07T05:42:03.521Z,0.80
2022-10-07T05:44:32.636Z,1.80
2022-10-07T05:47:00.444Z,4.40
2022-10-07T05:49:28.033Z,4.00
2022-10-07T05:51:55.779Z,4.00
2022-10-07T05:54:24.449Z,3.00
2022-10-07T05:56:52.432Z,3.40
2022-10-07T05:59:20.694Z,4.00
2022-10-07T06:01:48.824Z,5.20
2022-10-07T06:04:16.514Z,1.80
2022-10-07T06:06:44.156Z,3.20
2022-10-07T06:09:29.625Z,3.80
2022-10-07T06:12:14.476Z,3.00
2022-10-07T06:14:42.526Z,2.60
2022-10-07T06:17:10.118Z,2.20
2022-10-07T06:19:38.178Z,3.40
2022-10-07T06:22:06.388Z,4.00
2022-10-07T06:24:35.402Z,3.00
2022-10-07T06:27:03.339Z,3.00
2022-10-07T06:29:31.046Z,4.00
2022-10-07T06:31:59.039Z,3.60
2022-10-07T06:34:26.784Z,1.40
2022-10-07T06:36:54.387Z,3.00
2022-10-07T06:39:22.350Z,4.00
2022-10-07T06:41:52.596Z,3.20
2022-10-07T06:44:20.838Z,1.40
2022-10-07T06:46:48.506Z,3.00
2022-10-07T06:49:16.351Z,3.00
2022-10-07T06:51:44.422Z,3.80
2022-10-07T06:54:12.032Z,3.40
2022-10-07T06:56:40.979Z,1.80
2022-10-07T06:59:08.677Z,3.80
2022-10-07T07:01:36.353Z,0.50
2022-10-07T07:04:05.631Z,2.00
2022-10-07T07:06:33.256Z,1.00
2022-10-07T07:09:05.760Z,4.00
2022-10-07T07:11:41.855Z,1.00
2022-10-07T07:14:09.756Z,3.00
2022-10-07T07:16:37.531Z,1.00
2022-10-07T07:19:05.853Z,4.00
2022-10-07T07:21:34.758Z,1.00
2022-10-07T07:24:02.613Z,3.00
2022-10-07T07:26:30.687Z,0.50
2022-10-07T07:28:59.292Z,2.00
2022-10-07T07:31:27.328Z,1.00
2022-10-07T07:33:55.603Z,3.00
2022-10-07T07:36:23.278Z,3.00
2022-10-07T07:38:51.777Z,3.00
2022-10-07T07:41:19.444Z,1.00
2022-10-07T07:43:47.630Z,3.00
2022-10-07T07:46:15.510Z,3.00
2022-10-07T07:48:43.437Z,3.00
2022-10-07T07:51:11.224Z,1.00
2022-10-07T07:53:39.385Z,3.00
2022-10-07T07:56:07.661Z,5.50
2022-10-07T07:58:35.444Z,3.00
2022-10-07T08:01:03.450Z,0.50
2022-10-07T08:03:31.680Z,0.25
2022-10-07T08:05:59.450Z,2.00
2022-10-07T08:08:28.055Z,1.50
2022-10-07T08:10:55.972Z,0.75
2022-10-07T08:13:23.771Z,0.75
2022-10-07T08:15:51.930Z,1.00
2022-10-07T08:18:19.869Z,1.00
2022-10-07T08:20:48.111Z,2.50
2022-10-07T08:23:15.946Z,0.75
2022-10-07T08:25:44.126Z,0.25
2022-10-07T08:28:12.148Z,0.00
2022-10-07T08:30:40.346Z,0.75
2022-10-07T08:33:08.582Z,1.00
2022-10-07T08:35:36.640Z,1.00
2022-10-07T08:38:04.394Z,0.75
2022-10-07T08:40:32.527Z,1.00
2022-10-07T08:43:00.527Z,0.00
2022-10-07T08:45:29.943Z,0.00
2022-10-07T08:47:58.257Z,1.00
2022-10-07T08:50:25.946Z,0.50
2022-10-07T08:52:54.876Z,0.25
2022-10-07T08:55:22.836Z,1.00
2022-10-07T08:57:50.731Z,2.50
2022-10-07T09:00:18.946Z,0.00
2022-10-07T09:02:46.884Z,1.00
2022-10-07T09:05:15.567Z,1.00
2022-10-07T09:07:45.698Z,0.00
2022-10-07T09:10:14.175Z,1.00
2022-10-07T09:12:41.902Z,1.00
2022-10-07T09:15:09.668Z,1.00
2022-10-07T09:17:37.785Z,0.00
2022-10-07T09:20:05.602Z,0.80
2022-10-07T09:22:33.970Z,0.60
2022-10-07T09:25:01.969Z,0.00
2022-10-07T09:27:29.956Z,1.00
2022-10-07T09:29:58.169Z,0.00
2022-10-07T09:32:26.120Z,0.00
2022-10-07T09:34:54.652Z,0.00
2022-10-07T09:37:22.648Z,0.00
2022-10-07T09:39:50.526Z,0.00
2022-10-07T09:42:18.638Z,1.00
2022-10-07T09:44:46.399Z,0.00
2022-10-07T09:47:14.566Z,1.00
2022-10-07T09:49:42.499Z,1.40
2022-10-07T09:52:10.140Z,0.00
2022-10-07T09:54:38.060Z,0.00
2022-10-07T09:57:06.370Z,0.00
2022-10-07T09:59:34.631Z,0.00
2022-10-07T10:02:02.766Z,0.20
2022-10-07T10:04:30.774Z,0.40
2022-10-07T10:06:58.758Z,0.00
2022-10-07T10:09:26.513Z,0.00
2022-10-07T10:11:54.832Z,0.60
2022-10-07T10:14:22.635Z,0.00
2022-10-07T10:16:50.615Z,0.00
2022-10-07T10:19:19.576Z,0.00
2022-10-07T10:21:48.221Z,0.00
2022-10-07T10:24:16.533Z,0.00
2022-10-07T10:26:43.431Z,0.00
2022-10-07T10:29:11.439Z,0.60
2022-10-07T10:31:39.462Z,1.00
2022-10-07T10:34:07.287Z,0.00
2022-10-07T10:36:35.383Z,1.20
2022-10-07T10:39:03.329Z,0.80
2022-10-07T10:41:31.379Z,0.20
2022-10-07T10:43:59.394Z,2.00
2022-10-07T10:46:27.408Z,0.00
2022-10-07T10:48:55.926Z,0.00
2022-10-07T10:51:28.449Z,0.00
2022-10-07T10:53:56.945Z,1.00
2022-10-07T10:56:24.936Z,0.00
2022-10-07T10:58:54.444Z,1.00
2022-10-07T11:01:24.756Z,1.00
2022-10-07T11:03:52.679Z,0.80
2022-10-07T11:06:20.539Z,0.00
2022-10-07T11:08:48.986Z,0.60
2022-10-07T11:11:16.690Z,0.00
2022-10-07T11:13:47.576Z,1.00
2022-10-07T11:16:15.519Z,0.00
2022-10-07T11:18:43.507Z,0.00
2022-10-07T11:21:12.193Z,0.00
2022-10-07T11:23:41.593Z,0.40
2022-10-07T11:26:10.724Z,0.60
2022-10-07T11:28:38.689Z,1.00
2022-10-07T11:31:06.410Z,1.00
2022-10-07T11:33:34.286Z,1.00
2022-10-07T11:36:02.060Z,1.00
2022-10-07T11:38:30.365Z,1.00
2022-10-07T11:40:58.119Z,1.00
2022-10-07T11:43:26.588Z,1.20
2022-10-07T11:45:54.679Z,1.00
2022-10-07T11:48:22.763Z,1.00
2022-10-07T11:50:50.988Z,1.00
2022-10-07T11:53:18.817Z,0.00
2022-10-07T11:55:47.884Z,0.00
2022-10-07T11:58:18.512Z,0.60
2022-10-07T12:00:46.479Z,0.40
2022-10-07T12:03:14.585Z,1.00
2022-10-07T12:05:42.894Z,0.80
2022-10-07T12:08:10.839Z,1.00
2022-10-07T12:10:38.985Z,0.80
2022-10-07T12:13:06.973Z,1.00
2022-10-07T12:15:35.371Z,1.80
2022-10-07T12:18:03.079Z,0.80
2022-10-07T12:20:31.050Z,0.00
2022-10-07T12:22:59.057Z,0.00
2022-10-07T12:25:29.386Z,0.20
2022-10-07T12:27:58.070Z,1.80
2022-10-07T12:30:26.048Z,0.00
2022-10-07T12:32:53.890Z,1.00
2022-10-07T12:35:21.912Z,1.00
2022-10-07T12:37:51.911Z,1.00
2022-10-07T12:40:20.141Z,1.40
2022-10-07T12:42:48.182Z,1.00
2022-10-07T12:45:16.005Z,0.60
2022-10-07T12:47:43.787Z,1.00
2022-10-07T12:50:11.967Z,1.40
2022-10-07T12:52:40.995Z,0.80
2022-10-07T12:55:09.716Z,0.00
2022-10-07T12:57:37.500Z,0.00
2022-10-07T13:00:05.613Z,0.80
2022-10-07T13:02:33.942Z,1.00
2022-10-07T13:05:02.174Z,1.00
2022-10-07T13:07:29.940Z,0.00
2022-10-07T13:09:57.875Z,0.20
2022-10-07T13:12:26.428Z,0.80
2022-10-07T13:14:54.432Z,0.00
2022-10-07T13:17:22.523Z,1.00
2022-10-07T13:19:50.143Z,1.00
2022-10-07T13:22:18.010Z,0.00
2022-10-07T13:24:47.243Z,0.00
2022-10-07T13:27:15.602Z,1.00
2022-10-07T13:29:43.592Z,0.00
2022-10-07T13:32:11.319Z,0.60
2022-10-07T13:34:39.136Z,0.80
2022-10-07T13:37:06.974Z,0.80
2022-10-07T13:39:35.018Z,0.20
2022-10-07T13:42:03.641Z,1.00
2022-10-07T13:44:31.451Z,0.00
2022-10-07T13:47:00.168Z,0.00
2022-10-07T13:49:28.092Z,1.00
2022-10-07T13:51:56.467Z,1.00
2022-10-07T13:54:25.124Z,0.20
2022-10-07T13:56:53.644Z,0.40
2022-10-07T13:59:22.229Z,0.40
2022-10-07T14:01:50.171Z,1.00
2022-10-07T14:04:18.125Z,0.00
2022-10-07T14:06:46.384Z,1.00
2022-10-07T14:09:14.237Z,0.60
2022-10-07T14:11:43.458Z,1.00
2022-10-07T14:14:11.563Z,0.00
2022-10-07T14:16:40.289Z,1.00
2022-10-07T14:19:08.400Z,0.00
2022-10-07T14:21:36.263Z,0.60
2022-10-07T14:24:04.095Z,0.80
2022-10-07T14:26:31.916Z,1.00
2022-10-07T14:29:00.046Z,0.00
2022-10-07T14:31:45.727Z,1.00
2022-10-07T14:34:30.919Z,0.00
2022-10-07T14:36:59.265Z,0.00
2022-10-07T14:39:27.297Z,0.20
2022-10-07T14:41:55.550Z,1.20
2022-10-07T14:44:23.341Z,0.80
2022-10-07T14:46:51.454Z,0.00
2022-10-07T14:49:19.318Z,1.00
2022-10-07T14:51:49.385Z,1.00
2022-10-07T14:54:17.426Z,1.20
2022-10-07T14:56:45.236Z,0.00
2022-10-07T14:59:13.420Z,1.00
2022-10-07T15:01:41.050Z,1.00
2022-10-07T15:04:10.476Z,1.00
2022-10-07T15:06:39.224Z,0.60
2022-10-07T15:09:06.987Z,1.20
2022-10-07T15:11:36.059Z,1.00
2022-10-07T15:14:03.837Z,0.00
2022-10-07T15:16:32.338Z,0.60
2022-10-07T15:19:02.542Z,0.00
2022-10-07T15:21:30.999Z,1.00
2022-10-07T15:23:58.920Z,1.00
2022-10-07T15:26:26.864Z,0.00
2022-10-07T15:28:55.372Z,1.00
2022-10-07T15:31:23.772Z,1.00
2022-10-07T15:33:51.656Z,1.20
2022-10-07T15:36:19.481Z,1.00
2022-10-07T15:38:47.182Z,2.00
2022-10-07T15:41:15.138Z,0.60
2022-10-07T15:43:43.967Z,0.00
2022-10-07T15:46:13.339Z,2.00
2022-10-07T15:48:41.174Z,1.00
2022-10-07T15:51:09.103Z,1.00
2022-10-07T15:53:36.999Z,1.20
2022-10-07T15:56:07.832Z,1.00
2022-10-07T15:58:35.694Z,1.40
2022-10-07T16:01:03.612Z,2.20
2022-10-07T16:03:31.454Z,0.00
2022-10-07T16:06:00.698Z,2.60
2022-10-07T16:08:28.764Z,1.00
2022-10-07T16:10:56.626Z,2.40
2022-10-07T16:13:24.514Z,1.00
2022-10-07T16:15:52.447Z,1.40
2022-10-07T16:18:20.537Z,1.00
2022-10-07T16:20:48.769Z,0.60
2022-10-07T16:23:16.664Z,2.20
2022-10-07T16:25:44.494Z,2.60
2022-10-07T16:28:30.109Z,0.80
2022-10-07T16:30:58.737Z,1.00
2022-10-07T16:33:27.313Z,4.00
2022-10-07T16:35:55.749Z,3.00
2022-10-07T16:38:23.674Z,1.40
2022-10-07T16:40:51.615Z,0.00
2022-10-07T16:43:20.186Z,0.60
2022-10-07T16:45:47.963Z,1.00
2022-10-07T16:48:17.647Z,1.00
2022-10-07T16:50:47.333Z,1.80
2022-10-07T16:53:15.128Z,0.20
2022-10-07T16:55:44.059Z,3.00
2022-10-07T16:58:12.077Z,1.00
2022-10-07T17:00:41.444Z,1.80
2022-10-07T17:03:09.800Z,0.00
2022-10-07T17:05:39.460Z,0.60
2022-10-07T17:08:08.015Z,0.80
2022-10-07T17:10:36.348Z,1.00
2022-10-07T17:13:04.921Z,0.00
2022-10-07T17:15:32.787Z,1.00
2022-10-07T17:18:00.665Z,0.00
2022-10-07T17:20:29.387Z,0.25
2022-10-07T17:22:57.093Z,1.00
2022-10-07T17:25:24.932Z,1.50
2022-10-07T17:27:52.715Z,2.00
2022-10-07T17:30:20.594Z,0.50
2022-10-07T17:32:49.930Z,0.50
2022-10-07T17:35:18.434Z,0.00
2022-10-07T17:37:46.493Z,1.00
2022-10-07T17:40:14.650Z,1.00
2022-10-07T17:42:42.639Z,1.50
2022-10-07T17:45:12.776Z,1.00
2022-10-07T17:47:40.546Z,1.00
2022-10-07T17:50:08.402Z,1.00
2022-10-07T17:52:36.363Z,3.00
2022-10-07T17:55:04.498Z,2.50
2022-10-07T17:57:34.091Z,1.50
2022-10-07T18:00:04.769Z,2.50
2022-10-07T18:02:33.071Z,7.00
2022-10-07T18:05:02.055Z,17.75
2022-10-07T18:07:30.932Z,22.00
2022-10-07T18:09:59.932Z,8.00
2022-10-07T18:12:45.125Z,6.00
2022-10-07T18:15:22.217Z,3.75
2022-10-07T18:17:51.083Z,1.00
2022-10-07T18:20:18.930Z,2.50
2022-10-07T18:22:46.707Z,1.00
2022-10-07T18:25:14.525Z,1.00
2022-10-07T18:27:43.643Z,0.00
2022-10-07T18:30:11.682Z,1.00
2022-10-07T18:32:39.956Z,1.00
2022-10-07T18:35:07.985Z,1.00
2022-10-07T18:37:36.380Z,1.00
2022-10-07T18:40:04.782Z,2.00
2022-10-07T18:42:32.648Z,0.00
2022-10-07T18:45:01.386Z,0.50
2022-10-07T18:47:29.249Z,1.00
2022-10-07T18:49:57.667Z,0.50
2022-10-07T18:52:25.504Z,0.75
2022-10-07T18:54:53.452Z,1.00
2022-10-07T18:57:22.428Z,3.00
2022-10-07T18:59:50.233Z,1.00
2022-10-07T19:02:18.490Z,0.00
2022-10-07T19:04:46.259Z,2.00
2022-10-07T19:07:14.052Z,1.00
2022-10-07T19:09:42.402Z,4.00
2022-10-07T19:12:30.123Z,0.75
2022-10-07T19:14:56.955Z,2.50
2022-10-07T19:17:24.834Z,3.00
2022-10-07T19:19:52.630Z,3.00
2022-10-07T19:22:20.794Z,1.00
2022-10-07T19:25:05.799Z,3.00
2022-10-07T19:27:33.630Z,1.00
2022-10-07T19:30:02.093Z,1.00
2022-10-07T19:32:29.927Z,3.00
2022-10-07T19:34:57.792Z,3.00
2022-10-07T19:37:25.659Z,1.00
2022-10-07T19:39:53.521Z,2.00
2022-10-07T19:42:22.585Z,3.00
2022-10-07T19:44:50.357Z,3.50
2022-10-07T19:47:18.685Z,3.25
2022-10-07T19:49:46.690Z,1.50
2022-10-07T19:52:14.964Z,5.50
2022-10-07T19:54:46.411Z,11.25
2022-10-07T19:57:14.321Z,12.75
2022-10-07T19:59:42.082Z,4.00
2022-10-07T20:02:10.102Z,3.75
2022-10-07T20:04:41.596Z,4.00
2022-10-07T20:07:10.071Z,3.00
2022-10-07T20:09:37.918Z,2.00
2022-10-07T20:12:05.872Z,1.00
2022-10-07T20:14:35.616Z,1.00
2022-10-07T20:17:03.630Z,3.00
2022-10-07T20:19:32.193Z,3.75
2022-10-07T20:22:01.578Z,2.50
2022-10-07T20:24:29.318Z,3.00
2022-10-07T20:26:57.865Z,3.00
2022-10-07T20:29:26.323Z,3.50
2022-10-07T20:31:54.853Z,3.00
2022-10-07T20:34:22.782Z,1.00
2022-10-07T20:36:50.599Z,2.50
2022-10-07T20:39:35.939Z,3.00
2022-10-07T20:42:21.351Z,1.00
2022-10-07T20:44:49.925Z,3.00
2022-10-07T20:47:17.700Z,1.00
2022-10-07T20:49:45.594Z,3.00
2022-10-07T20:52:13.503Z,1.50
2022-10-07T20:54:41.922Z,4.00
2022-10-07T20:57:09.677Z,4.50
2022-10-07T20:59:37.480Z,6.75
2022-10-07T21:02:09.500Z,8.00
2022-10-07T21:04:37.629Z,5.50
2022-10-07T21:07:06.056Z,7.00
2022-10-07T21:09:36.578Z,5.50
2022-10-07T21:12:05.301Z,6.00
2022-10-07T21:14:33.038Z,3.50
2022-10-07T21:17:01.473Z,4.00
2022-10-07T21:19:29.390Z,4.00
2022-10-07T21:21:57.404Z,0.75
2022-10-07T21:24:25.401Z,3.00
2022-10-07T21:26:53.140Z,1.00
2022-10-07T21:29:20.936Z,1.00
2022-10-07T21:31:49.531Z,2.00
2022-10-07T21:34:17.498Z,0.00
2022-10-07T21:36:50.406Z,0.00
2022-10-07T21:39:20.788Z,4.00
2022-10-07T21:41:50.299Z,5.75
2022-10-07T21:44:18.031Z,9.00
2022-10-07T21:46:46.483Z,15.00
2022-10-07T21:49:14.265Z,8.00
2022-10-07T21:51:42.007Z,3.00
2022-10-07T21:54:10.026Z,3.50
2022-10-07T21:56:38.316Z,3.50
2022-10-07T21:59:05.974Z,3.25
2022-10-07T22:01:33.863Z,4.00
2022-10-07T22:04:01.618Z,4.50
2022-10-07T22:06:47.222Z,5.00
2022-10-07T22:09:14.986Z,3.00
2022-10-07T22:11:42.900Z,1.00
2022-10-07T22:14:12.808Z,2.00
2022-10-07T22:16:40.828Z,1.00
2022-10-07T22:19:08.465Z,2.00
2022-10-07T22:21:40.262Z,1.50
2022-10-07T22:24:08.429Z,1.00
2022-10-07T22:26:37.953Z,4.00
2022-10-07T22:29:05.654Z,3.00
2022-10-07T22:31:33.727Z,3.00
2022-10-07T22:34:01.771Z,6.00
2022-10-07T22:36:29.186Z,3.00
2022-10-07T22:38:56.867Z,1.75
2022-10-07T22:41:24.495Z,1.00
2022-10-07T22:43:54.462Z,3.00
2022-10-07T22:46:26.571Z,1.00
2022-10-07T22:48:54.689Z,3.00
2022-10-07T22:51:22.292Z,2.00
2022-10-07T22:53:50.373Z,0.75
2022-10-07T22:56:18.080Z,1.00
2022-10-07T22:58:46.038Z,1.00
2022-10-07T23:01:13.629Z,1.00
2022-10-07T23:03:43.887Z,3.00
2022-10-07T23:06:11.595Z,1.00
2022-10-07T23:08:39.244Z,1.00
2022-10-07T23:11:06.875Z,3.00
2022-10-07T23:13:34.537Z,1.00
2022-10-07T23:16:02.248Z,2.50
2022-10-07T23:18:29.961Z,1.00
2022-10-07T23:20:57.946Z,2.00
2022-10-07T23:23:26.376Z,0.25
2022-10-07T23:25:53.960Z,1.00
2022-10-07T23:28:21.868Z,3.00
2022-10-07T23:30:49.562Z,1.00
2022-10-07T23:33:17.529Z,3.00
2022-10-07T23:35:46.736Z,1.00
2022-10-07T23:38:14.434Z,1.00
2022-10-07T23:40:42.196Z,1.00
2022-10-07T23:43:11.602Z,3.00
2022-10-07T23:45:39.549Z,1.00
2022-10-07T23:48:07.330Z,3.00
2022-10-07T23:50:34.947Z,1.00
2022-10-07T23:53:02.684Z,3.00
2022-10-07T23:55:30.304Z,2.50
2022-10-07T23:57:58.333Z,1.00
